Time;durP1;ratioP1;P1;durP2;ratioP2;P2;SDS_P1;SDS_P2;PMS_P1;PMS_P2;Temp;Humidity;BMP_temperature;BMP_pressure;BME280_temperature;BME280_humidity;BME280_pressure;Samples;Min_cycle;Max_cycle;Signal;HPM_P1;HPM_P2
2023/04/17 00:02:21;;;;;;;2.40;2.20;;;12.70;89.90;;;;;;5053389;28;20182;-68
2023/04/17 00:04:47;;;;;;;2.28;2.10;;;12.70;90.00;;;;;;5057526;28;20186;-69
2023/04/17 00:07:13;;;;;;;1.90;1.85;;;12.60;90.00;;;;;;5055888;28;20185;-69
2023/04/17 00:09:38;;;;;;;1.67;1.63;;;12.50;90.40;;;;;;5053836;28;20176;-69
2023/04/17 00:12:04;;;;;;;3.88;1.83;;;12.50;90.40;;;;;;5052711;28;20171;-69
2023/04/17 00:14:30;;;;;;;3.28;2.00;;;12.50;90.00;;;;;;5052178;28;20183;-69
2023/04/17 00:16:56;;;;;;;3.65;1.90;;;12.40;90.70;;;;;;5050516;28;20203;-69
2023/04/17 00:19:22;;;;;;;1.40;1.35;;;12.40;90.60;;;;;;5048972;28;20208;-69
2023/04/17 00:21:47;;;;;;;1.73;1.23;;;12.40;90.50;;;;;;5054030;28;20741;-70
2023/04/17 00:24:13;;;;;;;1.38;1.30;;;12.30;90.20;;;;;;5054537;28;20199;-69
2023/04/17 00:26:39;;;;;;;1.05;1.05;;;12.30;90.20;;;;;;5051556;28;20202;-69
2023/04/17 00:29:05;;;;;;;1.35;1.08;;;12.30;90.60;;;;;;5052773;28;20275;-70
2023/04/17 00:31:30;;;;;;;0.70;0.70;;;12.20;90.70;;;;;;5052353;28;20716;-69
2023/04/17 00:33:57;;;;;;;2.22;0.80;;;12.20;90.70;;;;;;5048385;28;20215;-69
2023/04/17 00:36:23;;;;;;;0.63;0.63;;;12.20;90.80;;;;;;5052914;28;20187;-69
2023/04/17 00:38:49;;;;;;;0.82;0.80;;;12.20;90.80;;;;;;5055543;28;20719;-69
2023/04/17 00:41:15;;;;;;;4.18;0.80;;;12.20;90.40;;;;;;5052273;28;20187;-70
2023/04/17 00:43:41;;;;;;;0.55;0.55;;;12.20;90.60;;;;;;5052200;28;20202;-69
2023/04/17 00:46:07;;;;;;;0.65;0.65;;;12.10;90.70;;;;;;5048696;28;20187;-69
2023/04/17 00:48:34;;;;;;;0.85;0.85;;;12.10;90.70;;;;;;5052928;28;20198;-69
2023/04/17 00:51:01;;;;;;;0.75;0.75;;;12.10;90.80;;;;;;5053445;28;20195;-69
2023/04/17 00:53:30;;;;;;;0.57;0.47;;;12.00;90.70;;;;;;5056658;28;20236;-69
2023/04/17 00:55:58;;;;;;;0.47;0.47;;;12.10;90.60;;;;;;5052536;28;20198;-69
2023/04/17 00:58:24;;;;;;;0.63;0.60;;;12.00;90.80;;;;;;5056527;28;20596;-70
2023/04/17 01:00:50;;;;;;;0.85;0.77;;;12.00;90.50;;;;;;5050170;28;20280;-69
2023/04/17 01:03:16;;;;;;;0.75;0.75;;;12.00;90.90;;;;;;5056029;28;20691;-69
2023/04/17 01:05:46;;;;;;;2.30;0.73;;;12.00;91.00;;;;;;5058278;28;20179;-71
2023/04/17 01:08:13;;;;;;;2.25;0.70;;;12.00;91.10;;;;;;5054880;28;20182;-69
2023/04/17 01:10:38;;;;;;;1.05;0.77;;;11.90;91.30;;;;;;5053796;28;20187;-69
2023/04/17 01:13:06;;;;;;;0.88;0.68;;;11.90;91.10;;;;;;5055107;28;20278;-69
2023/04/17 01:15:34;;;;;;;0.52;0.47;;;11.90;90.90;;;;;;5052232;28;20187;-69
2023/04/17 01:18:00;;;;;;;0.57;0.57;;;11.80;91.40;;;;;;5046264;28;20615;-69
2023/04/17 01:20:30;;;;;;;1.77;0.63;;;11.80;91.60;;;;;;5055621;28;20179;-69
2023/04/17 01:22:59;;;;;;;0.65;0.65;;;11.70;91.50;;;;;;5053958;28;20231;-69
2023/04/17 01:25:26;;;;;;;0.63;0.50;;;11.70;91.40;;;;;;5050141;28;20184;-69
2023/04/17 01:27:52;;;;;;;0.55;0.55;;;11.60;91.20;;;;;;5053099;28;20195;-69
2023/04/17 01:30:19;;;;;;;0.60;0.52;;;11.60;91.40;;;;;;5054107;28;20178;-69
2023/04/17 01:32:44;;;;;;;0.60;0.60;;;11.50;91.50;;;;;;5050705;28;20192;-70
2023/04/17 01:35:10;;;;;;;0.57;0.55;;;11.50;91.30;;;;;;5049365;28;21926;-69
2023/04/17 01:37:36;;;;;;;2.00;0.75;;;11.50;90.80;;;;;;5055341;28;20656;-69
2023/04/17 01:40:05;;;;;;;0.80;0.73;;;11.50;90.50;;;;;;5051218;28;20198;-70
2023/04/17 01:42:34;;;;;;;0.85;0.77;;;11.50;90.20;;;;;;5051002;28;20176;-69
2023/04/17 01:45:00;;;;;;;2.08;0.90;;;11.50;90.40;;;;;;5051751;28;20641;-69
2023/04/17 01:47:26;;;;;;;0.60;0.60;;;11.40;90.30;;;;;;5047968;28;20183;-69
2023/04/17 01:49:51;;;;;;;1.60;0.95;;;11.40;90.10;;;;;;5049314;28;20676;-69
2023/04/17 01:52:17;;;;;;;1.15;0.63;;;11.40;89.90;;;;;;5054405;28;20538;-70
2023/04/17 01:54:43;;;;;;;1.63;1.08;;;11.40;89.50;;;;;;5052752;28;20175;-69
2023/04/17 01:57:08;;;;;;;0.70;0.70;;;11.50;89.50;;;;;;5050848;28;20656;-69
2023/04/17 01:59:34;;;;;;;0.77;0.70;;;11.50;89.00;;;;;;5056649;28;20709;-69
2023/04/17 02:02:00;;;;;;;1.75;0.80;;;11.50;89.00;;;;;;5057606;28;20843;-69
2023/04/17 02:04:25;;;;;;;0.73;0.73;;;11.40;88.90;;;;;;5052942;28;20672;-69
2023/04/17 02:06:51;;;;;;;1.05;1.05;;;11.50;88.90;;;;;;5050371;28;20201;-69
2023/04/17 02:09:17;;;;;;;3.20;0.80;;;11.50;88.50;;;;;;5052479;28;20179;-70
2023/04/17 02:11:43;;;;;;;0.75;0.75;;;11.40;88.70;;;;;;5055478;28;20604;-69
2023/04/17 02:14:09;;;;;;;1.10;1.10;;;11.40;88.60;;;;;;5051765;28;20178;-69
2023/04/17 02:16:36;;;;;;;1.13;0.88;;;11.40;88.50;;;;;;5053999;28;20375;-69
2023/04/17 02:19:02;;;;;;;0.80;0.80;;;11.40;88.60;;;;;;5049810;28;20631;-69
2023/04/17 02:21:28;;;;;;;1.20;1.10;;;11.40;88.60;;;;;;5053291;28;20182;-69
2023/04/17 02:23:53;;;;;;;1.00;0.98;;;11.40;88.30;;;;;;5052214;28;20239;-69
2023/04/17 02:26:19;;;;;;;1.27;1.05;;;11.50;88.50;;;;;;5054542;28;20190;-68
2023/04/17 02:28:45;;;;;;;1.02;0.93;;;11.50;88.60;;;;;;5047823;28;20198;-68
2023/04/17 02:31:11;;;;;;;1.08;1.08;;;11.60;88.10;;;;;;5054378;28;20184;-68
2023/04/17 02:33:37;;;;;;;2.92;2.10;;;11.70;88.20;;;;;;5051025;28;20190;-68
2023/04/17 02:36:05;;;;;;;1.80;1.70;;;11.70;89.00;;;;;;5052629;28;20179;-69
2023/04/17 02:38:31;;;;;;;1.67;1.58;;;11.70;89.80;;;;;;5057021;28;20214;-67
2023/04/17 02:40:58;;;;;;;1.92;1.73;;;11.80;89.80;;;;;;5048192;28;20183;-68
2023/04/17 02:43:24;;;;;;;1.75;1.70;;;11.80;89.90;;;;;;5044407;28;20219;-69
2023/04/17 02:45:50;;;;;;;2.08;1.98;;;11.80;89.70;;;;;;5052049;28;20276;-68
2023/04/17 02:48:17;;;;;;;2.30;1.45;;;11.90;90.00;;;;;;5053307;28;20262;-69
2023/04/17 02:50:42;;;;;;;3.40;1.77;;;11.90;90.10;;;;;;5052516;28;20680;-69
2023/04/17 02:53:08;;;;;;;2.38;1.58;;;11.90;90.10;;;;;;5052148;28;20194;-68
2023/04/17 02:55:34;;;;;;;1.77;1.55;;;11.90;90.10;;;;;;5054988;28;20171;-69
2023/04/17 02:58:00;;;;;;;2.33;1.83;;;11.90;90.60;;;;;;5061573;28;20257;-69
2023/04/17 03:00:27;;;;;;;1.70;1.60;;;11.90;90.50;;;;;;5056262;28;20211;-69
2023/04/17 03:02:53;;;;;;;1.38;1.35;;;11.80;90.40;;;;;;5055134;28;20737;-69
2023/04/17 03:05:24;;;;;;;1.58;1.25;;;11.80;91.00;;;;;;5052892;28;20225;-69
2023/04/17 03:07:50;;;;;;;1.75;1.55;;;11.80;90.70;;;;;;5055694;28;20191;-70
2023/04/17 03:10:17;;;;;;;1.65;1.55;;;11.80;90.70;;;;;;5055548;28;20225;-68
2023/04/17 03:12:43;;;;;;;1.20;1.20;;;11.80;91.10;;;;;;5052812;28;20271;-69
2023/04/17 03:15:09;;;;;;;1.92;1.83;;;11.80;91.30;;;;;;5054977;28;20806;-69
2023/04/17 03:17:35;;;;;;;1.65;1.65;;;11.80;91.20;;;;;;5050200;28;20267;-69
2023/04/17 03:20:01;;;;;;;1.98;1.33;;;11.80;91.10;;;;;;5059457;28;20385;-68
2023/04/17 03:22:26;;;;;;;1.75;1.58;;;11.80;91.10;;;;;;5050701;28;20179;-68
2023/04/17 03:24:52;;;;;;;1.50;1.40;;;11.80;91.20;;;;;;5054237;28;20183;-69
2023/04/17 03:27:23;;;;;;;1.50;1.40;;;11.80;91.30;;;;;;5054249;28;20250;-69
2023/04/17 03:29:55;;;;;;;1.95;1.48;;;11.80;91.20;;;;;;5054879;28;20182;-69
2023/04/17 03:32:20;;;;;;;1.95;1.85;;;11.70;91.50;;;;;;5051533;28;20258;-70
2023/04/17 03:34:46;;;;;;;2.08;1.90;;;11.80;91.40;;;;;;5055502;28;20292;-68
2023/04/17 03:37:12;;;;;;;1.05;1.05;;;11.80;91.30;;;;;;5050027;28;20190;-68
2023/04/17 03:39:38;;;;;;;1.70;1.40;;;11.70;91.80;;;;;;5049447;28;20306;-68
2023/04/17 03:42:05;;;;;;;2.35;1.50;;;11.70;91.60;;;;;;5050420;28;20220;-68
2023/04/17 03:44:31;;;;;;;5.50;1.75;;;11.70;91.70;;;;;;5050637;28;20333;-68
2023/04/17 03:46:56;;;;;;;1.20;1.10;;;11.70;91.70;;;;;;5055249;28;20920;-68
2023/04/17 03:49:22;;;;;;;2.63;1.67;;;11.70;91.70;;;;;;5050675;28;20191;-68
2023/04/17 03:51:48;;;;;;;1.85;1.35;;;11.60;92.00;;;;;;5055326;28;20176;-68
2023/04/17 03:54:14;;;;;;;1.27;1.15;;;11.60;91.80;;;;;;5055645;28;20199;-69
2023/04/17 03:56:40;;;;;;;2.65;0.98;;;11.50;91.70;;;;;;5069455;28;20183;-68
2023/04/17 03:59:05;;;;;;;1.90;1.40;;;11.50;91.80;;;;;;5051382;28;20214;-68
2023/04/17 04:01:31;;;;;;;2.92;1.27;;;11.40;91.70;;;;;;5053850;28;20176;-69
2023/04/17 04:03:57;;;;;;;1.05;1.05;;;11.40;91.20;;;;;;5054833;28;20261;-68
2023/04/17 04:06:23;;;;;;;2.30;1.25;;;11.40;91.00;;;;;;5051330;28;20180;-68
2023/04/17 04:08:49;;;;;;;1.13;0.90;;;11.40;90.90;;;;;;5054044;28;20195;-69
2023/04/17 04:11:15;;;;;;;2.17;1.38;;;11.40;90.80;;;;;;5049842;28;20215;-68
2023/04/17 04:13:41;;;;;;;2.63;0.90;;;11.40;90.80;;;;;;5053296;28;20187;-69
2023/04/17 04:16:08;;;;;;;1.25;1.10;;;11.40;90.60;;;;;;5053577;28;20207;-68
2023/04/17 04:18:35;;;;;;;3.05;1.00;;;11.40;90.80;;;;;;5057696;28;20741;-68
2023/04/17 04:21:01;;;;;;;0.68;0.68;;;11.40;90.40;;;;;;5054578;28;20529;-69
2023/04/17 04:23:26;;;;;;;2.35;1.20;;;11.40;90.50;;;;;;5052950;28;20217;-68
2023/04/17 04:25:55;;;;;;;1.80;1.08;;;11.40;90.90;;;;;;5055832;28;20834;-68
2023/04/17 04:28:22;;;;;;;2.70;1.40;;;11.50;90.90;;;;;;5054053;28;20183;-68
2023/04/17 04:30:49;;;;;;;1.13;1.02;;;11.50;90.80;;;;;;5056587;28;20167;-68
2023/04/17 04:33:21;;;;;;;0.90;0.90;;;11.50;90.80;;;;;;5056205;28;20182;-68
2023/04/17 04:35:47;;;;;;;1.38;1.10;;;11.60;90.40;;;;;;5061217;28;20930;-68
2023/04/17 04:38:14;;;;;;;1.30;1.20;;;11.60;90.10;;;;;;5053006;28;20219;-68
2023/04/17 04:40:42;;;;;;;2.05;1.17;;;11.60;90.30;;;;;;5057806;28;20983;-69
2023/04/17 04:43:09;;;;;;;2.55;1.13;;;11.70;90.10;;;;;;5057575;28;20184;-69
2023/04/17 04:45:35;;;;;;;1.05;0.95;;;11.70;90.00;;;;;;5053569;28;20910;-68
2023/04/17 04:48:00;;;;;;;2.38;1.27;;;11.70;89.90;;;;;;5052903;28;20207;-68
2023/04/17 04:50:26;;;;;;;1.08;1.08;;;11.80;90.00;;;;;;5050770;28;20307;-69
2023/04/17 04:52:52;;;;;;;1.33;0.90;;;11.80;89.90;;;;;;5050994;28;20282;-69
2023/04/17 04:55:18;;;;;;;1.10;1.10;;;11.90;89.70;;;;;;5052926;28;20198;-68
2023/04/17 04:57:44;;;;;;;0.95;0.95;;;11.90;89.60;;;;;;5054684;28;20591;-68
2023/04/17 05:00:12;;;;;;;1.13;1.13;;;12.00;89.60;;;;;;5047065;28;20187;-69
2023/04/17 05:02:37;;;;;;;3.92;1.02;;;12.00;89.30;;;;;;5051335;28;20238;-69
2023/04/17 05:05:03;;;;;;;1.17;1.17;;;12.00;89.10;;;;;;5054118;28;20269;-69
2023/04/17 05:07:29;;;;;;;1.20;1.13;;;12.00;89.20;;;;;;5051443;28;20180;-70
2023/04/17 05:09:55;;;;;;;1.25;1.15;;;12.10;89.10;;;;;;5053660;28;20728;-68
2023/04/17 05:12:20;;;;;;;1.42;1.30;;;12.10;89.10;;;;;;5055475;28;20180;-69
2023/04/17 05:14:46;;;;;;;1.02;1.02;;;12.10;88.90;;;;;;5055954;28;20238;-71
2023/04/17 05:17:12;;;;;;;1.63;1.50;;;12.20;88.80;;;;;;5055407;28;20571;-69
2023/04/17 05:19:38;;;;;;;1.98;1.27;;;12.20;88.70;;;;;;5054920;28;20206;-69
2023/04/17 05:22:04;;;;;;;1.48;1.10;;;12.10;88.80;;;;;;5055263;28;20176;-70
2023/04/17 05:24:29;;;;;;;2.78;1.23;;;12.20;88.60;;;;;;5055370;28;20170;-68
2023/04/17 05:26:55;;;;;;;1.67;1.42;;;12.20;88.80;;;;;;5054919;28;20188;-70
2023/04/17 05:29:23;;;;;;;2.45;1.00;;;12.30;88.50;;;;;;5052590;28;20172;-70
2023/04/17 05:31:49;;;;;;;1.35;1.30;;;12.20;88.70;;;;;;5049713;28;20164;-68
2023/04/17 05:34:15;;;;;;;1.77;1.52;;;12.30;88.20;;;;;;5053238;28;20188;-68
2023/04/17 05:36:41;;;;;;;1.48;1.25;;;12.30;88.00;;;;;;5050525;28;20687;-69
2023/04/17 05:39:06;;;;;;;0.90;0.90;;;12.30;87.70;;;;;;5057421;28;20214;-70
2023/04/17 05:41:32;;;;;;;1.08;1.08;;;12.30;87.70;;;;;;5054798;28;20701;-69
2023/04/17 05:43:58;;;;;;;2.47;1.88;;;12.40;87.20;;;;;;5059129;28;20193;-69
2023/04/17 05:46:24;;;;;;;3.25;2.30;;;12.50;87.10;;;;;;5053144;28;20207;-70
2023/04/17 05:48:49;;;;;;;2.25;1.73;;;12.50;86.80;;;;;;5054220;28;20190;-69
2023/04/17 05:51:15;;;;;;;3.38;1.08;;;12.50;86.60;;;;;;5056237;28;20182;-70
2023/04/17 05:53:43;;;;;;;2.72;1.40;;;12.50;86.60;;;;;;5055276;28;20692;-69
2023/04/17 05:56:10;;;;;;;2.38;1.63;;;12.50;86.30;;;;;;5055081;28;20168;-70
2023/04/17 05:58:35;;;;;;;1.63;1.13;;;12.50;86.30;;;;;;5047641;28;20703;-69
2023/04/17 06:01:04;;;;;;;3.25;1.45;;;12.50;86.10;;;;;;5054117;28;20237;-69
2023/04/17 06:03:31;;;;;;;2.03;1.33;;;12.50;86.30;;;;;;5055593;28;20259;-70
2023/04/17 06:05:57;;;;;;;1.38;1.30;;;12.50;86.30;;;;;;5050229;28;20729;-67
2023/04/17 06:08:23;;;;;;;1.33;1.27;;;12.40;86.50;;;;;;5052079;28;20250;-68
2023/04/17 06:10:50;;;;;;;2.95;1.27;;;12.40;86.40;;;;;;5052492;28;20180;-67
2023/04/17 06:13:17;;;;;;;1.40;1.38;;;12.40;86.50;;;;;;5056979;28;20232;-68
2023/04/17 06:15:43;;;;;;;1.92;0.88;;;12.40;86.60;;;;;;5050473;28;20653;-70
2023/04/17 06:18:08;;;;;;;1.23;1.17;;;12.40;87.10;;;;;;5056914;28;20190;-68
2023/04/17 06:20:34;;;;;;;1.35;1.23;;;12.40;87.00;;;;;;5054902;28;20214;-68
2023/04/17 06:23:00;;;;;;;1.27;1.23;;;12.50;86.90;;;;;;5051349;28;20186;-68
2023/04/17 06:25:26;;;;;;;1.00;0.98;;;12.50;86.60;;;;;;5052716;28;20705;-68
2023/04/17 06:27:52;;;;;;;1.20;1.02;;;12.60;86.30;;;;;;5051924;28;20179;-69
2023/04/17 06:30:17;;;;;;;1.70;1.30;;;12.60;86.20;;;;;;5052490;28;20179;-68
2023/04/17 06:32:43;;;;;;;1.98;1.35;;;12.70;85.80;;;;;;5052827;28;20178;-68
2023/04/17 06:35:12;;;;;;;1.15;1.15;;;12.80;85.80;;;;;;5048603;28;20660;-69
2023/04/17 06:37:37;;;;;;;1.13;1.13;;;12.80;85.80;;;;;;5047587;28;20203;-68
2023/04/17 06:40:03;;;;;;;2.53;1.42;;;12.80;85.50;;;;;;5054603;28;20211;-69
2023/04/17 06:42:32;;;;;;;1.55;1.42;;;12.80;85.30;;;;;;5052535;28;20172;-68
2023/04/17 06:44:58;;;;;;;1.15;1.15;;;12.80;85.50;;;;;;5055169;28;20194;-68
2023/04/17 06:47:24;;;;;;;2.25;1.52;;;12.90;85.30;;;;;;5051074;28;20171;-68
2023/04/17 06:49:49;;;;;;;2.83;1.63;;;12.90;85.20;;;;;;5052088;28;20638;-67
2023/04/17 06:52:18;;;;;;;3.30;1.30;;;13.00;84.60;;;;;;5052648;28;20184;-68
2023/04/17 06:54:44;;;;;;;1.15;0.95;;;13.00;85.00;;;;;;5052761;28;20191;-68
2023/04/17 06:57:11;;;;;;;1.63;1.63;;;13.10;84.40;;;;;;5051441;28;20196;-68
2023/04/17 06:59:37;;;;;;;1.40;1.40;;;13.10;84.10;;;;;;5059120;28;20210;-68
2023/04/17 07:02:03;;;;;;;2.17;1.40;;;13.10;84.00;;;;;;5057381;28;20176;-67
2023/04/17 07:04:31;;;;;;;3.92;1.48;;;13.20;84.20;;;;;;5050567;28;20555;-69
2023/04/17 07:06:57;;;;;;;2.40;1.80;;;13.20;84.10;;;;;;5052263;28;20176;-69
2023/04/17 07:09:24;;;;;;;1.63;1.52;;;13.30;84.30;;;;;;5052628;28;20656;-68
2023/04/17 07:11:50;;;;;;;4.38;1.77;;;13.40;83.80;;;;;;5049380;28;20200;-67
2023/04/17 07:14:16;;;;;;;4.80;1.67;;;13.50;83.90;;;;;;5052500;28;20195;-67
2023/04/17 07:16:41;;;;;;;1.88;1.63;;;13.50;83.80;;;;;;5057318;28;20180;-68
2023/04/17 07:19:07;;;;;;;3.63;1.80;;;13.50;83.30;;;;;;5055287;28;20249;-68
2023/04/17 07:21:33;;;;;;;2.28;1.95;;;13.50;83.40;;;;;;5052296;28;20183;-68
2023/04/17 07:23:59;;;;;;;1.98;1.52;;;13.60;83.40;;;;;;5053842;28;20221;-67
2023/04/17 07:26:24;;;;;;;2.10;1.63;;;13.70;83.50;;;;;;5048970;28;20187;-68
2023/04/17 07:28:50;;;;;;;2.35;2.15;;;13.80;82.90;;;;;;5051677;28;20186;-68
2023/04/17 07:31:16;;;;;;;1.40;1.40;;;13.80;82.80;;;;;;5049930;28;20640;-68
2023/04/17 07:33:42;;;;;;;3.85;1.27;;;13.80;82.50;;;;;;5051329;28;20172;-68
2023/04/17 07:36:10;;;;;;;1.63;1.52;;;13.90;82.30;;;;;;5054070;28;20172;-67
2023/04/17 07:38:36;;;;;;;1.77;1.67;;;14.00;82.60;;;;;;5053163;28;20286;-68
2023/04/17 07:41:02;;;;;;;1.52;1.52;;;14.00;81.60;;;;;;5050490;28;20604;-68
2023/04/17 07:43:27;;;;;;;1.55;1.42;;;14.00;81.70;;;;;;5056713;28;20175;-68
2023/04/17 07:45:54;;;;;;;1.83;1.80;;;14.10;81.80;;;;;;5056205;28;20188;-68
2023/04/17 07:48:21;;;;;;;2.38;1.75;;;14.30;81.80;;;;;;5052112;28;20187;-69
2023/04/17 07:50:50;;;;;;;3.13;1.63;;;14.50;81.00;;;;;;5058170;28;20168;-69
2023/04/17 07:53:21;;;;;;;1.70;1.70;;;14.70;80.50;;;;;;5054599;28;20568;-69
2023/04/17 07:55:47;;;;;;;2.08;1.98;;;14.90;79.50;;;;;;5081254;28;20207;-69
2023/04/17 07:58:13;;;;;;;1.70;1.65;;;15.00;79.00;;;;;;5052314;28;20210;-69
2023/04/17 08:00:40;;;;;;;2.17;2.08;;;15.10;78.80;;;;;;5055220;28;20187;-70
2023/04/17 08:03:06;;;;;;;9.38;2.13;;;15.20;78.60;;;;;;5050059;28;20175;-69
2023/04/17 08:05:32;;;;;;;3.33;2.15;;;15.30;78.20;;;;;;5053845;28;20237;-69
2023/04/17 08:08:01;;;;;;;2.03;1.73;;;15.30;78.00;;;;;;5054498;28;20180;-68
2023/04/17 08:10:28;;;;;;;2.33;2.00;;;15.40;77.40;;;;;;5054330;28;20241;-69
2023/04/17 08:12:55;;;;;;;1.92;1.83;;;15.60;77.00;;;;;;5055027;28;20183;-70
2023/04/17 08:15:21;;;;;;;5.35;2.08;;;15.70;77.00;;;;;;5052885;28;20212;-69
2023/04/17 08:17:48;;;;;;;3.15;2.15;;;15.60;77.20;;;;;;5046975;28;20180;-70
2023/04/17 08:20:17;;;;;;;2.15;2.05;;;15.70;77.10;;;;;;5053597;28;20175;-68
2023/04/17 08:22:45;;;;;;;2.08;1.98;;;15.70;77.50;;;;;;5055270;28;20662;-68
2023/04/17 08:25:12;;;;;;;1.98;1.88;;;15.70;77.90;;;;;;5051204;28;20195;-70
2023/04/17 08:27:40;;;;;;;4.05;1.80;;;15.70;78.60;;;;;;5050099;28;20187;-69
2023/04/17 08:30:09;;;;;;;1.67;1.63;;;15.80;79.00;;;;;;5049056;28;20254;-69
2023/04/17 08:32:40;;;;;;;3.38;1.52;;;15.80;78.60;;;;;;5053704;28;20184;-69
2023/04/17 08:35:11;;;;;;;1.88;1.77;;;15.80;78.70;;;;;;5050137;28;20193;-68
2023/04/17 08:37:41;;;;;;;4.60;2.00;;;15.80;79.80;;;;;;5051234;28;20175;-69
2023/04/17 08:40:12;;;;;;;1.70;1.55;;;15.70;80.70;;;;;;5052333;28;20184;-71
2023/04/17 08:42:42;;;;;;;2.17;2.08;;;15.50;81.50;;;;;;5054928;28;20189;-70
2023/04/17 08:45:10;;;;;;;3.60;2.00;;;15.40;81.90;;;;;;5049106;28;20654;-70
2023/04/17 08:47:38;;;;;;;2.60;1.80;;;15.20;83.00;;;;;;5057060;28;21695;-71
2023/04/17 08:50:08;;;;;;;1.83;1.83;;;15.10;83.00;;;;;;5051579;28;20336;-70
2023/04/17 08:52:41;;;;;;;2.22;1.60;;;15.00;84.40;;;;;;5054554;28;20232;-69
2023/04/17 08:55:09;;;;;;;5.13;2.10;;;15.00;84.40;;;;;;5059622;28;20198;-70
2023/04/17 08:57:51;;;;;;;1.85;1.75;;;15.00;82.70;;;;;;5055929;28;20634;-70
2023/04/17 09:00:26;;;;;;;3.42;1.63;;;15.00;83.90;;;;;;5050411;28;20743;-70
2023/04/17 09:02:54;;;;;;;4.43;1.75;;;15.10;84.20;;;;;;5055464;28;20179;-70
2023/04/17 09:05:24;;;;;;;2.10;1.92;;;15.10;84.30;;;;;;5051611;28;20661;-70
2023/04/17 09:08:05;;;;;;;3.03;1.95;;;15.30;84.70;;;;;;5052083;28;20241;-70
2023/04/17 09:10:50;;;;;;;1.33;1.25;;;15.40;83.40;;;;;;5053234;28;20190;-71
2023/04/17 09:13:24;;;;;;;1.65;1.55;;;15.50;82.30;;;;;;5054926;28;20194;-70
2023/04/17 09:16:11;;;;;;;2.10;1.83;;;15.70;82.50;;;;;;5058522;28;20218;-70
2023/04/17 09:18:38;;;;;;;1.48;1.48;;;15.60;81.10;;;;;;5053307;28;20238;-70
2023/04/17 09:21:05;;;;;;;2.38;1.65;;;15.50;79.20;;;;;;5050327;28;20265;-69
2023/04/17 09:23:48;;;;;;;3.50;2.08;;;15.30;79.80;;;;;;5053878;28;20179;-70
2023/04/17 09:26:20;;;;;;;2.72;1.45;;;15.20;80.00;;;;;;5053846;28;20179;-70
2023/04/17 09:29:13;;;;;;;2.50;1.95;;;15.30;80.40;;;;;;5053566;28;20687;-70
2023/04/17 09:31:41;;;;;;;2.03;1.92;;;15.50;79.90;;;;;;5050779;28;20184;-70
2023/04/17 09:34:11;;;;;;;2.28;1.88;;;15.50;79.50;;;;;;5050227;28;20596;-70
2023/04/17 09:36:40;;;;;;;2.25;1.92;;;15.60;79.70;;;;;;5049693;28;20629;-70
2023/04/17 09:39:26;;;;;;;2.60;2.05;;;15.30;77.80;;;;;;5054264;28;20219;-70
2023/04/17 09:42:02;;;;;;;1.85;1.75;;;15.30;78.60;;;;;;5051597;28;20195;-70
2023/04/17 09:44:29;;;;;;;2.15;1.92;;;15.10;79.90;;;;;;5055055;28;20202;-70
2023/04/17 09:46:55;;;;;;;3.90;1.52;;;15.10;81.50;;;;;;5050621;28;20176;-70
2023/04/17 09:49:56;;;;;;;1.27;1.27;;;14.90;81.90;;;;;;5051954;28;20681;-70
2023/04/17 09:52:23;;;;;;;4.03;1.45;;;14.60;81.00;;;;;;5052265;28;20170;-71
2023/04/17 09:54:52;;;;;;;2.97;1.92;;;14.30;82.80;;;;;;5049901;28;20221;-71
2023/04/17 09:57:18;;;;;;;2.05;1.70;;;14.30;83.70;;;;;;5053956;28;20701;-70
2023/04/17 09:59:48;;;;;;;1.45;1.35;;;14.20;83.80;;;;;;5055543;28;20272;-70
2023/04/17 10:02:16;;;;;;;2.95;1.92;;;14.20;84.60;;;;;;5058478;28;20206;-70
2023/04/17 10:04:43;;;;;;;2.22;1.65;;;14.10;83.80;;;;;;5055501;28;20594;-70
2023/04/17 10:07:11;;;;;;;1.85;1.75;;;14.30;84.80;;;;;;5052654;28;20697;-70
2023/04/17 10:09:40;;;;;;;1.65;1.55;;;14.40;84.00;;;;;;5052383;28;20178;-70
2023/04/17 10:12:14;;;;;;;1.52;1.42;;;14.60;83.60;;;;;;5051885;28;20179;-69
2023/04/17 10:14:45;;;;;;;1.52;1.42;;;14.80;81.30;;;;;;5056942;28;20344;-71
2023/04/17 10:17:31;;;;;;;1.70;1.60;;;15.10;81.10;;;;;;5055121;28;20276;-70
2023/04/17 10:20:16;;;;;;;1.30;1.30;;;15.30;79.80;;;;;;5057309;28;20269;-70
2023/04/17 10:22:43;;;;;;;1.83;1.73;;;15.40;78.00;;;;;;5055332;28;20179;-70
2023/04/17 10:25:11;;;;;;;1.75;1.60;;;15.40;77.40;;;;;;5054384;28;20204;-69
2023/04/17 10:27:40;;;;;;;1.60;1.60;;;15.40;76.60;;;;;;5054786;28;20191;-71
2023/04/17 10:30:11;;;;;;;1.63;1.60;;;15.40;77.20;;;;;;5050382;28;20187;-69
2023/04/17 10:32:39;;;;;;;1.27;1.27;;;15.60;77.90;;;;;;5054965;28;20214;-71
2023/04/17 10:35:16;;;;;;;1.88;1.77;;;15.80;75.20;;;;;;5054971;28;20172;-72
2023/04/17 10:37:51;;;;;;;1.80;1.73;;;15.90;75.40;;;;;;5047116;28;20170;-71
2023/04/17 10:40:22;;;;;;;2.83;1.58;;;16.00;73.70;;;;;;5052233;28;20194;-69
2023/04/17 10:43:10;;;;;;;1.60;1.50;;;16.00;72.30;;;;;;5051036;28;20179;-70
2023/04/17 10:46:11;;;;;;;1.88;1.77;;;15.90;72.80;;;;;;5051927;28;20249;-70
2023/04/17 10:48:40;;;;;;;1.70;1.60;;;16.40;74.20;;;;;;5053543;28;20175;-71
2023/04/17 10:51:39;;;;;;;1.60;1.48;;;17.10;72.20;;;;;;5052662;28;20171;-72
2023/04/17 10:54:08;;;;;;;1.80;1.70;;;18.00;69.30;;;;;;5061564;28;20223;-72
2023/04/17 10:56:39;;;;;;;1.77;1.63;;;18.10;68.30;;;;;;5062086;28;20958;-71
2023/04/17 10:59:06;;;;;;;1.92;1.83;;;18.20;68.20;;;;;;5062168;28;20727;-72
2023/04/17 11:01:47;;;;;;;2.25;2.15;;;18.30;68.10;;;;;;5061581;28;20225;-71
2023/04/17 11:04:21;;;;;;;2.42;2.22;;;18.40;68.20;;;;;;5061619;28;20280;-72
2023/04/17 11:06:47;;;;;;;3.35;2.40;;;18.60;67.70;;;;;;5060824;28;20171;-70
2023/04/17 11:09:14;;;;;;;1.80;1.80;;;18.40;67.20;;;;;;5062400;28;20676;-71
2023/04/17 11:11:42;;;;;;;3.05;2.88;;;17.90;68.10;;;;;;5063907;28;20197;-70
2023/04/17 11:14:10;;;;;;;3.70;2.30;;;17.30;68.90;;;;;;5066028;28;20172;-72
2023/04/17 11:16:40;;;;;;;2.50;2.40;;;16.90;70.20;;;;;;5066331;28;20191;-70
2023/04/17 11:19:11;;;;;;;2.50;2.15;;;16.90;70.70;;;;;;5049101;28;20210;-71
2023/04/17 11:21:56;;;;;;;2.75;2.55;;;16.80;71.80;;;;;;5065980;28;20266;-70
2023/04/17 11:24:25;;;;;;;2.35;2.25;;;16.70;72.00;;;;;;5066462;28;20250;-70
2023/04/17 11:26:52;;;;;;;3.10;2.72;;;16.60;71.60;;;;;;5066063;28;20183;-71
2023/04/17 11:29:20;;;;;;;6.68;2.95;;;16.50;71.60;;;;;;5064920;28;20274;-71
2023/04/17 11:31:47;;;;;;;2.60;2.50;;;16.20;72.50;;;;;;5054333;28;20212;-70
2023/04/17 11:34:14;;;;;;;6.82;2.97;;;16.10;73.40;;;;;;5053413;28;20575;-71
2023/04/17 11:36:50;;;;;;;2.60;2.40;;;16.10;73.40;;;;;;5054809;28;20262;-71
2023/04/17 11:39:17;;;;;;;3.45;2.83;;;16.10;72.60;;;;;;5045989;28;20215;-72
2023/04/17 11:41:45;;;;;;;2.53;2.42;;;16.00;72.20;;;;;;5047605;28;20262;-72
2023/04/17 11:44:16;;;;;;;3.28;3.08;;;16.00;72.80;;;;;;5044925;28;20194;-71
2023/04/17 11:46:41;;;;;;;2.88;2.78;;;15.90;72.80;;;;;;5052596;28;20179;-71
2023/04/17 11:49:07;;;;;;;3.13;2.63;;;15.90;71.00;;;;;;5052901;28;20186;-71
2023/04/17 11:51:33;;;;;;;2.90;2.70;;;16.00;72.60;;;;;;5056343;28;20205;-70
2023/04/17 11:53:59;;;;;;;3.00;2.63;;;16.10;71.80;;;;;;5053194;28;20187;-70
2023/04/17 11:56:28;;;;;;;2.80;2.70;;;16.20;70.60;;;;;;5056079;28;20179;-71
2023/04/17 11:58:56;;;;;;;3.33;3.10;;;16.20;70.00;;;;;;5052339;28;20217;-71
2023/04/17 12:01:24;;;;;;;2.63;2.50;;;16.30;70.60;;;;;;5052797;28;20306;-71
2023/04/17 12:03:51;;;;;;;3.65;3.42;;;16.50;70.40;;;;;;5053058;28;20214;-71
2023/04/17 12:06:17;;;;;;;3.00;2.80;;;16.70;70.70;;;;;;5053816;28;20183;-71
2023/04/17 12:08:49;;;;;;;3.63;3.33;;;16.90;70.70;;;;;;5055349;28;20179;-70
2023/04/17 12:11:34;;;;;;;4.18;3.00;;;17.20;70.10;;;;;;5054387;28;20290;-71
2023/04/17 12:14:01;;;;;;;4.25;2.70;;;17.70;69.20;;;;;;5058639;28;20179;-71
2023/04/17 12:16:28;;;;;;;3.60;3.05;;;18.20;69.00;;;;;;5055526;28;20183;-72
2023/04/17 12:18:54;;;;;;;4.90;3.30;;;18.80;66.80;;;;;;5052896;28;20690;-71
2023/04/17 12:21:20;;;;;;;3.30;3.05;;;19.20;66.20;;;;;;5054378;28;20257;-72
2023/04/17 12:23:47;;;;;;;3.50;3.40;;;19.30;65.50;;;;;;5050114;28;20213;-72
2023/04/17 12:26:13;;;;;;;2.92;2.83;;;19.50;65.20;;;;;;5052363;28;21704;-73
2023/04/17 12:28:39;;;;;;;3.00;2.90;;;19.50;64.20;;;;;;5056552;28;20191;-72
2023/04/17 12:31:05;;;;;;;4.28;3.42;;;19.60;64.40;;;;;;5052341;28;20188;-72
2023/04/17 12:33:32;;;;;;;3.53;3.00;;;19.60;63.80;;;;;;5053041;28;20180;-74
2023/04/17 12:36:02;;;;;;;2.65;2.58;;;19.50;63.60;;;;;;5050068;28;20614;-70
2023/04/17 12:38:29;;;;;;;2.92;2.83;;;19.50;63.30;;;;;;5047246;28;20219;-70
2023/04/17 12:40:55;;;;;;;2.92;2.78;;;19.20;63.70;;;;;;5050176;28;20263;-73
2023/04/17 12:43:21;;;;;;;8.23;2.50;;;18.80;64.30;;;;;;5050440;28;20253;-73
2023/04/17 12:45:47;;;;;;;8.90;3.30;;;18.70;65.20;;;;;;5051342;28;20186;-73
2023/04/17 12:48:14;;;;;;;2.97;2.72;;;18.70;65.20;;;;;;5048819;28;20671;-73
2023/04/17 12:50:43;;;;;;;2.95;2.78;;;18.70;64.90;;;;;;5057590;28;20190;-73
2023/04/17 12:53:11;;;;;;;3.08;2.92;;;18.60;65.00;;;;;;5057245;28;20610;-73